This is the latest recevied weather packets stored in our database for station/object K0RGI. If no packets are shown the sender has not sent any weather packets the latest 1 day(s).
| Time | Temp. | Humidity | Pressure | Rain* | Wind** | Luminosity | Snow |
|---|---|---|---|---|---|---|---|
| 1778003535 | 23.33° C | 48% | 1015.6 hPa | 0 mm | 1.79 m/s, 245° | 348 W/m² | - |
| 1778002934 | 23.33° C | 49% | 1015.9 hPa | 0 mm | 1.34 m/s, 264° | 307 W/m² | - |
| 1778002333 | 23.89° C | 48% | 1016.3 hPa | 0 mm | 0.45 m/s, 225° | 442 W/m² | - |
| 1778001732 | 23.33° C | 47% | 1016.5 hPa | 0 mm | 1.79 m/s, 274° | 580 W/m² | - |
| 1778001129 | 23.89° C | 48% | 1016.6 hPa | 0 mm | 2.24 m/s, 268° | 548 W/m² | - |
| 1778000529 | 23.33° C | 52% | 1016.8 hPa | 0 mm | 1.34 m/s, 335° | 563 W/m² | - |
| 1777999925 | 22.78° C | 50% | 1016.9 hPa | 0 mm | 1.34 m/s, 269° | 284 W/m² | - |
| 1777999324 | 22.78° C | 51% | 1016.9 hPa | 0 mm | 0.89 m/s, 257° | 309 W/m² | - |
| 1777998720 | 23.33° C | 53% | 1017 hPa | 0 mm | 0.45 m/s, 273° | 291 W/m² | - |
| 1777998121 | 22.78° C | 50% | 1017 hPa | 0 mm | 0.89 m/s, 278° | 267 W/m² | - |
| 1777997520 | 22.78° C | 53% | 1017 hPa | 0 mm | 2.24 m/s, 283° | 421 W/m² | - |
| 1777996915 | 22.78° C | 54% | 1016.9 hPa | 0 mm | 1.34 m/s, 170° | 277 W/m² | - |
| 1777996313 | 22.78° C | 55% | 1017 hPa | 0 mm | 1.34 m/s, 165° | 314 W/m² | - |
| 1777995711 | 22.78° C | 51% | 1016.9 hPa | 0 mm | 2.24 m/s, 294° | 455 W/m² | - |
| 1777995112 | 22.78° C | 56% | 1016.8 hPa | 0 mm | 0.89 m/s, 234° | 216 W/m² | - |
| 1777994510 | 21.67° C | 55% | 1016.8 hPa | 0 mm | 3.58 m/s, 265° | 521 W/m² | - |
| 1777993909 | 21.11° C | 57% | 1017 hPa | 0 mm | 0.89 m/s, 256° | 310 W/m² | - |
| 1777993308 | 21.11° C | 55% | 1016.8 hPa | 0 mm | 2.68 m/s, 284° | 374 W/m² | - |
| 1777992708 | 21.11° C | 56% | 1017 hPa | 0 mm | 1.79 m/s, 249° | 401 W/m² | - |
| 1777992108 | 21.11° C | 57% | 1016.9 hPa | 0 mm | 0.89 m/s, 278° | 358 W/m² | - |
| 1777991508 | 20.56° C | 55% | 1016.8 hPa | 0 mm | 2.68 m/s, 266° | 381 W/m² | - |
| 1777990908 | 20° C | 57% | 1016.8 hPa | 0 mm | 0.89 m/s, 208° | 429 W/m² | - |
| 1777990308 | 20° C | 58% | 1016.9 hPa | 0 mm | 1.79 m/s, 260° | 246 W/m² | - |
| 1777989708 | 20.56° C | 57% | 1017.1 hPa | 0 mm | 1.34 m/s, 126° | 290 W/m² | - |
| 1777989106 | 20° C | 59% | 1017.3 hPa | 0 mm | 0.89 m/s, 215° | 396 W/m² | - |
* Rain latest hour (hover to see other rain measurements)
** Current wind speed in m/s (hover to see current wind gust speed)